Atlanta, GA (30301)

8:33 PM EST on February 05, 2016 (GMT -0500)
Chastain | | Change Station
CLOSE
Current Station
Personal Weather Station
Location: Atlanta, GA
Elevation: 905 ft
Nearby Weather Stations

Elev 905 ft 33.87 °N, 84.40 °W | Updated 11 seconds ago

Clear
Clear
41.0 °F
Feels Like 41 °F
N
0.2
Wind Variable Wind from NNW
Gusts 3.8 mph

Today
High -- | Low -- °F
--% Chance of Precip.
Yesterday
High -- | Low -- °F
Precip. -- in
Pressure 30.40 in
Visibility 10.0 miles
Clouds Clear
Windchill 41 °F
Dew Point 13 °F
Humidity 31%
Rainfall 0.00 in
Snow Depth Not available.
7:31 AM 6:11 PM
Waning Crescent, 8% visible
METAR KPDK 060053Z 31007KT 10SM CLR 05/M08 A3035 RMK AO2 SLP292 T00501083
Pressure 30.40 in
Visibility 10.0 miles
Clouds Clear
Windchill 41 °F
Dew Point 13 °F
Humidity 31%
Rainfall 0.00 in
Snow Depth Not available.
7:31 AM 6:11 PM
Waning Crescent, 8% visible
METAR KPDK 060053Z 31007KT 10SM CLR 05/M08 A3035 RMK AO2 SLP292 T00501083

10-Day Weather Forecast

Almanac

Astronomy

Feb. 05, 2016 Rise Set
Actual Time
Civil Twilight
Nautical Twilight
Astronomical Twilight
Moon
Length of Visible Light
Length of Day
Tomorrow will be .
, % of the Moon is Illuminated

Today's Extremes

State Highs State Lows

Community

WunderPhotos

Upload Photos

1,890,906 photos uploaded!

WunderBlog® & News

Nearby

Air Quality

  Air Quality AQ Index Pollutant
Not available.

Snow Depth

Station Depth Elevation

Earthquake Activity

City Distance Mag. Time & Date
Minimum magnitude displayed is 2.5.

Coastal Water Temperatures

Place Temperature

Stations

Nearby Weather Stations

Station Location Temp. Windchill Dew Point Humidity Wind Precip. Elev Updated Type
                   

Watches & Warnings

There are currently no watches in effect.